sensor_id;sensor_type;location;lat;lon;timestamp;pressure;altitude;pressure_sealevel;temperature;humidity
78317;BME280;67572;50.930;18.276;2023-05-07T00:00:28;99316.28;;;7.27;87.38
78317;BME280;67572;50.930;18.276;2023-05-07T00:03:32;99316.09;;;7.30;86.50
78317;BME280;67572;50.930;18.276;2023-05-07T00:06:37;99323.00;;;7.33;86.93
78317;BME280;67572;50.930;18.276;2023-05-07T00:09:41;99320.09;;;7.21;87.23
78317;BME280;67572;50.930;18.276;2023-05-07T00:12:44;99314.63;;;7.24;87.22
78317;BME280;67572;50.930;18.276;2023-05-07T00:15:48;99315.41;;;7.27;87.48
78317;BME280;67572;50.930;18.276;2023-05-07T00:18:52;99314.72;;;7.23;87.50
78317;BME280;67572;50.930;18.276;2023-05-07T00:21:57;99315.16;;;7.31;87.09
78317;BME280;67572;50.930;18.276;2023-05-07T00:25:01;99324.97;;;7.29;87.63
78317;BME280;67572;50.930;18.276;2023-05-07T00:28:05;99323.28;;;7.28;87.71
78317;BME280;67572;50.930;18.276;2023-05-07T00:31:09;99327.44;;;7.32;87.08
78317;BME280;67572;50.930;18.276;2023-05-07T00:34:13;99328.25;;;7.34;86.93
78317;BME280;67572;50.930;18.276;2023-05-07T00:37:18;99332.09;;;7.11;87.20
78317;BME280;67572;50.930;18.276;2023-05-07T00:40:23;99337.97;;;7.16;86.90
78317;BME280;67572;50.930;18.276;2023-05-07T00:43:29;99338.81;;;7.17;86.76
78317;BME280;67572;50.930;18.276;2023-05-07T00:47:03;99334.72;;;7.11;86.11
78317;BME280;67572;50.930;18.276;2023-05-07T00:50:09;99349.00;;;7.24;86.13
78317;BME280;67572;50.930;18.276;2023-05-07T00:53:16;99350.88;;;7.22;86.32
78317;BME280;67572;50.930;18.276;2023-05-07T00:56:20;99350.63;;;7.44;86.13
78317;BME280;67572;50.930;18.276;2023-05-07T00:59:24;99344.69;;;7.57;85.92
78317;BME280;67572;50.930;18.276;2023-05-07T01:02:28;99351.25;;;7.32;85.79
78317;BME280;67572;50.930;18.276;2023-05-07T01:05:32;99352.84;;;7.19;86.10
78317;BME280;67572;50.930;18.276;2023-05-07T01:08:38;99345.19;;;7.30;85.19
78317;BME280;67572;50.930;18.276;2023-05-07T01:11:43;99351.06;;;7.19;85.82
78317;BME280;67572;50.930;18.276;2023-05-07T01:14:46;99347.78;;;7.14;86.10
78317;BME280;67572;50.930;18.276;2023-05-07T01:17:51;99339.44;;;7.22;86.29
78317;BME280;67572;50.930;18.276;2023-05-07T01:21:04;99344.34;;;7.30;86.24
78317;BME280;67572;50.930;18.276;2023-05-07T01:24:09;99348.00;;;7.10;86.43
78317;BME280;67572;50.930;18.276;2023-05-07T01:27:13;99357.13;;;7.04;85.86
78317;BME280;67572;50.930;18.276;2023-05-07T01:30:19;99361.00;;;7.14;85.37
78317;BME280;67572;50.930;18.276;2023-05-07T01:33:25;99362.41;;;7.21;84.60
78317;BME280;67572;50.930;18.276;2023-05-07T01:36:30;99359.97;;;7.34;85.63
78317;BME280;67572;50.930;18.276;2023-05-07T01:39:39;99356.28;;;7.04;85.33
78317;BME280;67572;50.930;18.276;2023-05-07T01:42:43;99359.34;;;6.94;86.13
78317;BME280;67572;50.930;18.276;2023-05-07T01:45:47;99364.88;;;6.90;86.98
78317;BME280;67572;50.930;18.276;2023-05-07T01:48:51;99374.19;;;6.80;86.75
78317;BME280;67572;50.930;18.276;2023-05-07T01:51:57;99372.72;;;6.74;86.70
78317;BME280;67572;50.930;18.276;2023-05-07T01:55:02;99375.75;;;6.66;87.09
78317;BME280;67572;50.930;18.276;2023-05-07T01:58:06;99378.13;;;6.71;86.60
78317;BME280;67572;50.930;18.276;2023-05-07T02:01:10;99373.72;;;6.72;86.56
78317;BME280;67572;50.930;18.276;2023-05-07T02:04:14;99368.09;;;6.60;86.08
78317;BME280;67572;50.930;18.276;2023-05-07T02:07:18;99369.41;;;6.52;86.15
78317;BME280;67572;50.930;18.276;2023-05-07T02:10:24;99374.63;;;6.53;85.89
78317;BME280;67572;50.930;18.276;2023-05-07T02:13:29;99376.69;;;6.65;85.75
78317;BME280;67572;50.930;18.276;2023-05-07T02:16:32;99370.97;;;6.56;86.26
78317;BME280;67572;50.930;18.276;2023-05-07T02:19:38;99371.69;;;6.59;86.21
78317;BME280;67572;50.930;18.276;2023-05-07T02:22:41;99363.88;;;6.56;86.75
78317;BME280;67572;50.930;18.276;2023-05-07T02:25:46;99372.63;;;6.58;86.71
78317;BME280;67572;50.930;18.276;2023-05-07T02:28:50;99370.22;;;6.71;86.48
78317;BME280;67572;50.930;18.276;2023-05-07T02:31:54;99368.59;;;6.68;86.13
78317;BME280;67572;50.930;18.276;2023-05-07T02:34:57;99370.69;;;6.79;85.72
78317;BME280;67572;50.930;18.276;2023-05-07T02:38:01;99371.31;;;6.67;86.22
78317;BME280;67572;50.930;18.276;2023-05-07T02:41:10;99372.72;;;6.74;86.06
78317;BME280;67572;50.930;18.276;2023-05-07T02:44:14;99367.81;;;6.66;86.47
78317;BME280;67572;50.930;18.276;2023-05-07T02:47:20;99374.19;;;6.80;85.87
78317;BME280;67572;50.930;18.276;2023-05-07T02:50:23;99368.19;;;6.59;86.23
78317;BME280;67572;50.930;18.276;2023-05-07T02:53:28;99372.94;;;6.70;85.90
78317;BME280;67572;50.930;18.276;2023-05-07T02:56:33;99367.94;;;6.63;86.88
78317;BME280;67572;50.930;18.276;2023-05-07T02:59:39;99371.97;;;6.34;86.78
78317;BME280;67572;50.930;18.276;2023-05-07T03:02:43;99371.31;;;6.48;86.75
78317;BME280;67572;50.930;18.276;2023-05-07T03:05:48;99372.19;;;6.49;86.39
78317;BME280;67572;50.930;18.276;2023-05-07T03:08:52;99370.41;;;6.49;86.71
78317;BME280;67572;50.930;18.276;2023-05-07T03:11:59;99376.53;;;6.50;86.43
78317;BME280;67572;50.930;18.276;2023-05-07T03:15:05;99380.53;;;6.58;86.85
78317;BME280;67572;50.930;18.276;2023-05-07T03:18:09;99387.25;;;6.47;86.60
78317;BME280;67572;50.930;18.276;2023-05-07T03:21:12;99394.34;;;6.27;86.90
78317;BME280;67572;50.930;18.276;2023-05-07T03:24:17;99405.63;;;6.31;86.44
78317;BME280;67572;50.930;18.276;2023-05-07T03:27:22;99408.59;;;6.04;86.62
78317;BME280;67572;50.930;18.276;2023-05-07T03:30:27;99411.69;;;6.14;86.57
78317;BME280;67572;50.930;18.276;2023-05-07T03:33:32;99420.69;;;6.29;86.02
78317;BME280;67572;50.930;18.276;2023-05-07T03:36:36;99419.75;;;6.30;86.22
78317;BME280;67572;50.930;18.276;2023-05-07T03:39:46;99433.22;;;6.24;86.44
78317;BME280;67572;50.930;18.276;2023-05-07T03:42:51;99432.72;;;6.16;86.01
78317;BME280;67572;50.930;18.276;2023-05-07T03:45:58;99436.56;;;6.08;86.07
78317;BME280;67572;50.930;18.276;2023-05-07T03:49:03;99432.78;;;5.95;85.76
78317;BME280;67572;50.930;18.276;2023-05-07T03:52:07;99436.34;;;5.94;85.35
78317;BME280;67572;50.930;18.276;2023-05-07T03:55:11;99440.25;;;6.04;85.53
78317;BME280;67572;50.930;18.276;2023-05-07T03:58:22;99445.66;;;6.22;85.86
78317;BME280;67572;50.930;18.276;2023-05-07T04:01:27;99452.59;;;6.04;85.33
78317;BME280;67572;50.930;18.276;2023-05-07T04:04:31;99452.25;;;6.11;86.37
78317;BME280;67572;50.930;18.276;2023-05-07T04:07:35;99460.25;;;6.10;85.67
78317;BME280;67572;50.930;18.276;2023-05-07T04:10:39;99456.91;;;6.06;85.77
78317;BME280;67572;50.930;18.276;2023-05-07T04:13:46;99464.41;;;6.16;85.23
78317;BME280;67572;50.930;18.276;2023-05-07T04:16:54;99467.38;;;6.28;85.64
78317;BME280;67572;50.930;18.276;2023-05-07T04:19:58;99467.72;;;6.39;84.73
78317;BME280;67572;50.930;18.276;2023-05-07T04:23:03;99468.72;;;6.37;84.74
78317;BME280;67572;50.930;18.276;2023-05-07T04:26:07;99469.56;;;6.37;84.70
78317;BME280;67572;50.930;18.276;2023-05-07T04:29:17;99473.50;;;6.29;84.36
78317;BME280;67572;50.930;18.276;2023-05-07T04:32:21;99475.97;;;6.32;84.32
78317;BME280;67572;50.930;18.276;2023-05-07T04:35:27;99483.47;;;6.22;84.42
78317;BME280;67572;50.930;18.276;2023-05-07T04:38:31;99485.00;;;6.28;84.44
78317;BME280;67572;50.930;18.276;2023-05-07T04:41:36;99488.75;;;6.22;84.17
78317;BME280;67572;50.930;18.276;2023-05-07T04:44:43;99488.34;;;6.31;84.80
78317;BME280;67572;50.930;18.276;2023-05-07T04:47:47;99482.03;;;6.34;84.04
78317;BME280;67572;50.930;18.276;2023-05-07T04:50:50;99497.53;;;6.42;84.38
78317;BME280;67572;50.930;18.276;2023-05-07T04:53:58;99499.06;;;6.28;84.38
78317;BME280;67572;50.930;18.276;2023-05-07T04:57:04;99507.41;;;6.38;84.56
78317;BME280;67572;50.930;18.276;2023-05-07T05:00:13;99508.81;;;6.26;84.23
78317;BME280;67572;50.930;18.276;2023-05-07T05:03:19;99508.94;;;6.23;84.43
78317;BME280;67572;50.930;18.276;2023-05-07T05:06:25;99520.22;;;6.27;84.49
78317;BME280;67572;50.930;18.276;2023-05-07T05:09:29;99515.16;;;6.22;84.08
78317;BME280;67572;50.930;18.276;2023-05-07T05:12:33;99520.97;;;6.30;84.69
78317;BME280;67572;50.930;18.276;2023-05-07T05:15:38;99522.41;;;6.17;84.54
78317;BME280;67572;50.930;18.276;2023-05-07T05:18:42;99530.22;;;6.20;84.76
78317;BME280;67572;50.930;18.276;2023-05-07T05:21:48;99535.88;;;6.31;84.92
78317;BME280;67572;50.930;18.276;2023-05-07T05:24:51;99539.44;;;6.30;84.79
78317;BME280;67572;50.930;18.276;2023-05-07T05:27:56;99545.25;;;6.18;84.98
78317;BME280;67572;50.930;18.276;2023-05-07T05:31:04;99544.38;;;6.38;84.46
78317;BME280;67572;50.930;18.276;2023-05-07T05:34:10;99546.25;;;6.36;84.40
78317;BME280;67572;50.930;18.276;2023-05-07T05:37:16;99546.00;;;6.40;83.81
78317;BME280;67572;50.930;18.276;2023-05-07T05:40:20;99544.78;;;6.29;83.76
78317;BME280;67572;50.930;18.276;2023-05-07T05:43:24;99550.00;;;6.30;83.55
78317;BME280;67572;50.930;18.276;2023-05-07T05:46:36;99559.78;;;6.28;83.63
78317;BME280;67572;50.930;18.276;2023-05-07T05:49:40;99563.56;;;6.42;84.08
78317;BME280;67572;50.930;18.276;2023-05-07T05:52:49;99572.75;;;6.53;83.64
78317;BME280;67572;50.930;18.276;2023-05-07T05:55:54;99576.84;;;6.40;82.68
78317;BME280;67572;50.930;18.276;2023-05-07T05:58:59;99581.88;;;6.26;82.64
78317;BME280;67572;50.930;18.276;2023-05-07T06:02:06;99581.44;;;6.36;82.65
78317;BME280;67572;50.930;18.276;2023-05-07T06:05:11;99575.72;;;6.46;83.36
78317;BME280;67572;50.930;18.276;2023-05-07T06:08:15;99574.81;;;6.47;83.11
78317;BME280;67572;50.930;18.276;2023-05-07T06:11:19;99592.34;;;6.48;82.66
78317;BME280;67572;50.930;18.276;2023-05-07T06:14:24;99591.91;;;6.58;82.85
78317;BME280;67572;50.930;18.276;2023-05-07T06:17:31;99589.84;;;6.65;82.83
78317;BME280;67572;50.930;18.276;2023-05-07T06:20:35;99592.34;;;6.48;82.45
78317;BME280;67572;50.930;18.276;2023-05-07T06:23:44;99602.16;;;6.25;83.25
78317;BME280;67572;50.930;18.276;2023-05-07T06:26:48;99595.09;;;6.26;83.34
78317;BME280;67572;50.930;18.276;2023-05-07T06:29:52;99599.66;;;6.22;83.36
78317;BME280;67572;50.930;18.276;2023-05-07T06:32:58;99597.66;;;6.48;83.38
78317;BME280;67572;50.930;18.276;2023-05-07T06:36:03;99604.25;;;6.58;83.57
78317;BME280;67572;50.930;18.276;2023-05-07T06:39:08;99604.38;;;6.34;83.54
78317;BME280;67572;50.930;18.276;2023-05-07T06:42:14;99607.94;;;6.33;84.11
78317;BME280;67572;50.930;18.276;2023-05-07T06:45:21;99614.44;;;6.26;82.92
78317;BME280;67572;50.930;18.276;2023-05-07T06:48:29;99601.75;;;6.34;83.56
78317;BME280;67572;50.930;18.276;2023-05-07T06:51:38;99603.06;;;6.65;83.27
78317;BME280;67572;50.930;18.276;2023-05-07T06:54:42;99604.84;;;6.83;82.45
78317;BME280;67572;50.930;18.276;2023-05-07T06:57:49;99602.66;;;7.12;81.97
78317;BME280;67572;50.930;18.276;2023-05-07T07:00:54;99601.56;;;7.35;81.58
78317;BME280;67572;50.930;18.276;2023-05-07T07:03:59;99608.47;;;7.37;81.65
78317;BME280;67572;50.930;18.276;2023-05-07T07:07:04;99614.34;;;7.25;80.01
78317;BME280;67572;50.930;18.276;2023-05-07T07:10:10;99615.91;;;7.29;79.45
78317;BME280;67572;50.930;18.276;2023-05-07T07:13:14;99607.34;;;7.24;79.66
78317;BME280;67572;50.930;18.276;2023-05-07T07:16:18;99615.13;;;7.08;80.28
78317;BME280;67572;50.930;18.276;2023-05-07T07:19:25;99612.97;;;6.79;80.00
78317;BME280;67572;50.930;18.276;2023-05-07T07:22:30;99622.84;;;6.75;80.94
78317;BME280;67572;50.930;18.276;2023-05-07T07:25:35;99630.78;;;6.75;81.22
78317;BME280;67572;50.930;18.276;2023-05-07T07:28:42;99640.66;;;6.90;81.39
78317;BME280;67572;50.930;18.276;2023-05-07T07:31:50;99645.69;;;6.76;81.47
78317;BME280;67572;50.930;18.276;2023-05-07T07:34:58;99656.28;;;6.56;81.78
78317;BME280;67572;50.930;18.276;2023-05-07T07:38:02;99660.78;;;6.74;82.15
78317;BME280;67572;50.930;18.276;2023-05-07T07:41:08;99673.41;;;6.47;82.65
78317;BME280;67572;50.930;18.276;2023-05-07T07:44:16;99677.22;;;6.60;82.15
78317;BME280;67572;50.930;18.276;2023-05-07T07:47:25;99675.38;;;6.62;82.75
78317;BME280;67572;50.930;18.276;2023-05-07T07:50:30;99677.75;;;6.68;82.31
78317;BME280;67572;50.930;18.276;2023-05-07T07:53:47;99683.56;;;6.56;82.08
78317;BME280;67572;50.930;18.276;2023-05-07T07:56:52;99674.00;;;6.54;82.29
78317;BME280;67572;50.930;18.276;2023-05-07T07:59:57;99674.06;;;6.73;81.86
78317;BME280;67572;50.930;18.276;2023-05-07T08:03:01;99679.91;;;6.79;82.04
78317;BME280;67572;50.930;18.276;2023-05-07T08:06:11;99677.81;;;6.67;82.20
78317;BME280;67572;50.930;18.276;2023-05-07T08:09:17;99698.56;;;6.76;81.77
78317;BME280;67572;50.930;18.276;2023-05-07T08:12:21;99687.38;;;6.70;81.35
78317;BME280;67572;50.930;18.276;2023-05-07T08:15:25;99684.84;;;6.87;81.21
78317;BME280;67572;50.930;18.276;2023-05-07T08:18:29;99691.81;;;7.08;81.23
78317;BME280;67572;50.930;18.276;2023-05-07T08:21:40;99698.78;;;7.11;80.90
78317;BME280;67572;50.930;18.276;2023-05-07T08:24:46;99698.75;;;6.72;81.23
78317;BME280;67572;50.930;18.276;2023-05-07T08:28:07;99698.38;;;7.00;81.13
78317;BME280;67572;50.930;18.276;2023-05-07T08:31:12;99704.19;;;7.08;80.25
78317;BME280;67572;50.930;18.276;2023-05-07T08:34:19;99705.44;;;7.19;79.79
78317;BME280;67572;50.930;18.276;2023-05-07T08:37:26;99703.91;;;7.33;79.52
78317;BME280;67572;50.930;18.276;2023-05-07T08:40:36;99705.50;;;7.37;79.72
78317;BME280;67572;50.930;18.276;2023-05-07T08:43:46;99714.66;;;7.48;79.77
78317;BME280;67572;50.930;18.276;2023-05-07T08:46:52;99715.38;;;7.33;78.86
78317;BME280;67572;50.930;18.276;2023-05-07T08:49:58;99721.16;;;7.60;78.98
78317;BME280;67572;50.930;18.276;2023-05-07T08:53:04;99724.66;;;7.61;78.95
78317;BME280;67572;50.930;18.276;2023-05-07T08:56:09;99724.94;;;7.55;78.67
78317;BME280;67572;50.930;18.276;2023-05-07T08:59:14;99717.13;;;7.33;78.68
78317;BME280;67572;50.930;18.276;2023-05-07T09:02:19;99728.06;;;7.63;78.22
78317;BME280;67572;50.930;18.276;2023-05-07T09:05:23;99735.75;;;7.69;78.81
78317;BME280;67572;50.930;18.276;2023-05-07T09:08:29;99732.47;;;7.64;77.59
78317;BME280;67572;50.930;18.276;2023-05-07T09:11:35;99728.38;;;7.75;77.78
78317;BME280;67572;50.930;18.276;2023-05-07T09:14:39;99728.56;;;7.90;77.84
78317;BME280;67572;50.930;18.276;2023-05-07T09:17:43;99736.53;;;7.52;77.78
78317;BME280;67572;50.930;18.276;2023-05-07T09:20:48;99742.19;;;7.63;78.79
78317;BME280;67572;50.930;18.276;2023-05-07T09:23:55;99743.97;;;7.44;78.77
78317;BME280;67572;50.930;18.276;2023-05-07T09:27:07;99740.47;;;7.43;78.04
78317;BME280;67572;50.930;18.276;2023-05-07T09:30:18;99745.69;;;7.45;77.33
78317;BME280;67572;50.930;18.276;2023-05-07T09:33:26;99746.84;;;7.58;77.09
78317;BME280;67572;50.930;18.276;2023-05-07T09:36:32;99750.25;;;7.60;76.86
78317;BME280;67572;50.930;18.276;2023-05-07T09:39:42;99755.06;;;7.71;77.70
78317;BME280;67572;50.930;18.276;2023-05-07T09:42:48;99762.63;;;7.60;77.14
78317;BME280;67572;50.930;18.276;2023-05-07T09:45:54;99759.06;;;7.42;76.43
78317;BME280;67572;50.930;18.276;2023-05-07T09:49:01;99771.09;;;7.49;77.28
78317;BME280;67572;50.930;18.276;2023-05-07T09:52:08;99773.88;;;7.65;78.03
78317;BME280;67572;50.930;18.276;2023-05-07T09:55:20;99770.16;;;7.88;77.73
78317;BME280;67572;50.930;18.276;2023-05-07T09:58:25;99774.38;;;7.73;77.01
78317;BME280;67572;50.930;18.276;2023-05-07T10:01:31;99785.94;;;7.70;77.40
78317;BME280;67572;50.930;18.276;2023-05-07T10:04:37;99779.56;;;7.56;76.82
78317;BME280;67572;50.930;18.276;2023-05-07T10:07:41;99794.44;;;7.39;77.13
78317;BME280;67572;50.930;18.276;2023-05-07T10:10:46;99792.72;;;7.38;77.71
78317;BME280;67572;50.930;18.276;2023-05-07T10:13:54;99794.44;;;7.39;77.55
78317;BME280;67572;50.930;18.276;2023-05-07T10:16:59;99785.28;;;7.46;77.79
78317;BME280;67572;50.930;18.276;2023-05-07T10:20:04;99794.25;;;7.63;77.61
78317;BME280;67572;50.930;18.276;2023-05-07T10:23:13;99787.03;;;7.66;77.11
78317;BME280;67572;50.930;18.276;2023-05-07T10:26:23;99793.13;;;7.87;77.03
78317;BME280;67572;50.930;18.276;2023-05-07T10:29:34;99795.91;;;8.03;75.49
78317;BME280;67572;50.930;18.276;2023-05-07T10:32:45;99795.81;;;7.86;74.52
78317;BME280;67572;50.930;18.276;2023-05-07T10:35:58;99795.66;;;8.26;74.61
78317;BME280;67572;50.930;18.276;2023-05-07T10:39:06;99791.38;;;8.24;73.78
78317;BME280;67572;50.930;18.276;2023-05-07T10:42:14;99798.75;;;8.36;74.17
78317;BME280;67572;50.930;18.276;2023-05-07T10:45:24;99795.88;;;8.22;73.56
78317;BME280;67572;50.930;18.276;2023-05-07T10:48:30;99800.75;;;7.93;74.09
78317;BME280;67572;50.930;18.276;2023-05-07T10:51:41;99797.28;;;7.74;74.29
78317;BME280;67572;50.930;18.276;2023-05-07T10:55:21;99800.41;;;7.82;74.94
78317;BME280;67572;50.930;18.276;2023-05-07T10:58:52;99802.50;;;7.94;74.96
78317;BME280;67572;50.930;18.276;2023-05-07T11:02:04;99797.81;;;7.99;74.02
78317;BME280;67572;50.930;18.276;2023-05-07T11:05:19;99801.28;;;8.01;74.94
78317;BME280;67572;50.930;18.276;2023-05-07T11:08:55;99806.50;;;8.03;74.21
78317;BME280;67572;50.930;18.276;2023-05-07T11:12:06;99815.44;;;8.00;75.17
78317;BME280;67572;50.930;18.276;2023-05-07T11:15:39;99816.47;;;7.79;75.56
78317;BME280;67572;50.930;18.276;2023-05-07T11:18:55;99819.22;;;7.76;75.41
78317;BME280;67572;50.930;18.276;2023-05-07T11:22:37;99822.50;;;7.62;75.11
78317;BME280;67572;50.930;18.276;2023-05-07T11:25:58;99816.44;;;7.60;75.45
78317;BME280;67572;50.930;18.276;2023-05-07T11:29:10;99825.19;;;7.81;75.31
78317;BME280;67572;50.930;18.276;2023-05-07T11:32:22;99826.34;;;7.94;73.76
78317;BME280;67572;50.930;18.276;2023-05-07T11:35:27;99831.19;;;8.03;73.39
78317;BME280;67572;50.930;18.276;2023-05-07T11:38:35;99823.84;;;8.27;73.80
78317;BME280;67572;50.930;18.276;2023-05-07T11:41:39;99826.25;;;8.70;73.59
78317;BME280;67572;50.930;18.276;2023-05-07T11:44:45;99826.63;;;8.79;73.06
78317;BME280;67572;50.930;18.276;2023-05-07T11:47:51;99826.81;;;8.40;71.70
78317;BME280;67572;50.930;18.276;2023-05-07T11:51:00;99828.72;;;8.55;73.44
78317;BME280;67572;50.930;18.276;2023-05-07T11:54:05;99832.38;;;8.34;73.45
78317;BME280;67572;50.930;18.276;2023-05-07T11:57:14;99835.84;;;7.79;74.41
78317;BME280;67572;50.930;18.276;2023-05-07T12:00:18;99850.72;;;7.82;75.37
78317;BME280;67572;50.930;18.276;2023-05-07T12:03:23;99858.66;;;7.82;73.98
78317;BME280;67572;50.930;18.276;2023-05-07T12:06:29;99853.44;;;7.81;73.10
78317;BME280;67572;50.930;18.276;2023-05-07T12:09:33;99858.53;;;8.04;73.59
78317;BME280;67572;50.930;18.276;2023-05-07T12:12:40;99855.38;;;8.15;72.33
78317;BME280;67572;50.930;18.276;2023-05-07T12:15:44;99855.47;;;8.68;72.54
78317;BME280;67572;50.930;18.276;2023-05-07T12:18:50;99857.03;;;8.89;72.26
78317;BME280;67572;50.930;18.276;2023-05-07T12:21:54;99850.63;;;8.76;70.88
78317;BME280;67572;50.930;18.276;2023-05-07T12:25:04;99859.31;;;8.80;70.98
78317;BME280;67572;50.930;18.276;2023-05-07T12:28:13;99860.59;;;9.07;71.20
78317;BME280;67572;50.930;18.276;2023-05-07T12:31:16;99852.53;;;9.09;69.93
78317;BME280;67572;50.930;18.276;2023-05-07T12:34:22;99845.28;;;9.12;69.83
78317;BME280;67572;50.930;18.276;2023-05-07T12:37:26;99866.25;;;9.34;69.84
78317;BME280;67572;50.930;18.276;2023-05-07T12:40:37;99860.81;;;9.03;68.99
78317;BME280;67572;50.930;18.276;2023-05-07T12:43:43;99850.50;;;9.14;68.20
78317;BME280;67572;50.930;18.276;2023-05-07T12:46:47;99853.16;;;9.14;67.50
78317;BME280;67572;50.930;18.276;2023-05-07T12:49:54;99852.91;;;10.18;65.49
78317;BME280;67572;50.930;18.276;2023-05-07T12:52:57;99856.13;;;11.16;64.95
78317;BME280;67572;50.930;18.276;2023-05-07T12:56:01;99853.25;;;11.49;63.76
78317;BME280;67572;50.930;18.276;2023-05-07T12:59:04;99847.03;;;10.28;64.79
78317;BME280;67572;50.930;18.276;2023-05-07T13:02:08;99856.19;;;9.74;67.85
78317;BME280;67572;50.930;18.276;2023-05-07T13:05:15;99850.25;;;9.36;66.47
78317;BME280;67572;50.930;18.276;2023-05-07T13:08:26;99856.13;;;9.58;69.10
78317;BME280;67572;50.930;18.276;2023-05-07T13:11:30;99857.53;;;9.65;68.83
78317;BME280;67572;50.930;18.276;2023-05-07T13:14:34;99869.06;;;9.14;67.51
78317;BME280;67572;50.930;18.276;2023-05-07T13:17:38;99866.28;;;9.17;69.17
78317;BME280;67572;50.930;18.276;2023-05-07T13:20:43;99869.38;;;9.42;69.79
78317;BME280;67572;50.930;18.276;2023-05-07T13:23:46;99861.91;;;9.16;68.91
78317;BME280;67572;50.930;18.276;2023-05-07T13:26:50;99862.56;;;9.37;70.39
78317;BME280;67572;50.930;18.276;2023-05-07T13:29:56;99866.59;;;8.94;67.85
78317;BME280;67572;50.930;18.276;2023-05-07T13:33:00;99873.09;;;8.69;68.11
78317;BME280;67572;50.930;18.276;2023-05-07T13:36:06;99881.81;;;9.07;70.13
78317;BME280;67572;50.930;18.276;2023-05-07T13:39:09;99882.50;;;8.94;69.67
78317;BME280;67572;50.930;18.276;2023-05-07T13:42:14;99884.47;;;9.07;70.00
78317;BME280;67572;50.930;18.276;2023-05-07T13:45:18;99886.00;;;8.94;69.06
78317;BME280;67572;50.930;18.276;2023-05-07T13:48:22;99882.72;;;8.89;67.64
78317;BME280;67572;50.930;18.276;2023-05-07T13:51:27;99894.81;;;9.12;68.54
78317;BME280;67572;50.930;18.276;2023-05-07T13:54:30;99894.22;;;9.07;68.09
78317;BME280;67572;50.930;18.276;2023-05-07T13:57:34;99893.03;;;9.12;67.03
78317;BME280;67572;50.930;18.276;2023-05-07T14:00:37;99881.31;;;9.34;68.08
78317;BME280;67572;50.930;18.276;2023-05-07T14:03:41;99896.22;;;9.54;66.03
78317;BME280;67572;50.930;18.276;2023-05-07T14:06:47;99900.91;;;9.49;66.57
78317;BME280;67572;50.930;18.276;2023-05-07T14:09:50;99902.47;;;9.01;64.46
78317;BME280;67572;50.930;18.276;2023-05-07T14:12:54;99902.69;;;8.96;66.25
78317;BME280;67572;50.930;18.276;2023-05-07T14:15:58;99903.94;;;8.89;68.47
78317;BME280;67572;50.930;18.276;2023-05-07T14:19:01;99908.53;;;8.85;68.01
78317;BME280;67572;50.930;18.276;2023-05-07T14:22:06;99904.81;;;9.07;68.82
78317;BME280;67572;50.930;18.276;2023-05-07T14:25:10;99900.13;;;8.95;69.12
78317;BME280;67572;50.930;18.276;2023-05-07T14:28:16;99905.72;;;9.06;69.47
78317;BME280;67572;50.930;18.276;2023-05-07T14:31:20;99908.38;;;9.06;68.56
78317;BME280;67572;50.930;18.276;2023-05-07T14:34:23;99910.00;;;8.91;69.25
78317;BME280;67572;50.930;18.276;2023-05-07T14:37:28;99921.00;;;8.83;68.15
78317;BME280;67572;50.930;18.276;2023-05-07T14:40:32;99918.09;;;8.71;69.36
78317;BME280;67572;50.930;18.276;2023-05-07T14:43:36;99919.53;;;8.59;69.20
78317;BME280;67572;50.930;18.276;2023-05-07T14:46:40;99913.53;;;8.55;69.92
78317;BME280;67572;50.930;18.276;2023-05-07T14:49:44;99911.75;;;8.56;69.75
78317;BME280;67572;50.930;18.276;2023-05-07T14:52:49;99917.03;;;8.56;70.12
78317;BME280;67572;50.930;18.276;2023-05-07T14:55:55;99916.47;;;8.49;69.98
78317;BME280;67572;50.930;18.276;2023-05-07T14:58:58;99914.31;;;8.57;69.27
78317;BME280;67572;50.930;18.276;2023-05-07T15:02:02;99920.91;;;8.49;68.89
78317;BME280;67572;50.930;18.276;2023-05-07T15:05:08;99924.56;;;8.46;68.39
78317;BME280;67572;50.930;18.276;2023-05-07T15:08:16;99924.88;;;8.40;69.41
78317;BME280;67572;50.930;18.276;2023-05-07T15:11:20;99920.56;;;8.56;69.21
78317;BME280;67572;50.930;18.276;2023-05-07T15:14:24;99923.13;;;8.58;69.21
78317;BME280;67572;50.930;18.276;2023-05-07T15:17:27;99926.78;;;8.55;67.56
78317;BME280;67572;50.930;18.276;2023-05-07T15:20:31;99929.31;;;8.76;68.55
78317;BME280;67572;50.930;18.276;2023-05-07T15:23:36;99933.28;;;8.67;68.13
78317;BME280;67572;50.930;18.276;2023-05-07T15:26:40;99940.31;;;8.49;68.14
78317;BME280;67572;50.930;18.276;2023-05-07T15:29:44;99941.53;;;8.42;66.62
78317;BME280;67572;50.930;18.276;2023-05-07T15:32:48;99947.50;;;8.47;67.38
78317;BME280;67572;50.930;18.276;2023-05-07T15:35:53;99951.59;;;8.54;68.13
78317;BME280;67572;50.930;18.276;2023-05-07T15:39:03;99947.53;;;8.27;67.20
78317;BME280;67572;50.930;18.276;2023-05-07T15:42:06;99954.69;;;8.25;68.56
78317;BME280;67572;50.930;18.276;2023-05-07T15:45:11;99963.16;;;8.33;68.89
78317;BME280;67572;50.930;18.276;2023-05-07T15:48:15;99944.03;;;8.45;68.54
78317;BME280;67572;50.930;18.276;2023-05-07T15:51:19;99949.50;;;8.42;68.93
78317;BME280;67572;50.930;18.276;2023-05-07T15:54:25;99948.72;;;8.40;68.68
78317;BME280;67572;50.930;18.276;2023-05-07T15:57:30;99942.75;;;8.35;67.83
78317;BME280;67572;50.930;18.276;2023-05-07T16:00:33;99949.59;;;8.20;67.99
78317;BME280;67572;50.930;18.276;2023-05-07T16:03:37;99951.09;;;8.26;67.96
78317;BME280;67572;50.930;18.276;2023-05-07T16:06:42;99949.16;;;8.11;68.16
78317;BME280;67572;50.930;18.276;2023-05-07T16:09:50;99948.44;;;8.07;69.50
78317;BME280;67572;50.930;18.276;2023-05-07T16:12:53;99950.38;;;8.03;68.97
78317;BME280;67572;50.930;18.276;2023-05-07T16:15:57;99960.69;;;8.10;69.04
78317;BME280;67572;50.930;18.276;2023-05-07T16:19:02;99964.13;;;8.12;67.44
78317;BME280;67572;50.930;18.276;2023-05-07T16:22:05;99962.69;;;8.04;68.57
78317;BME280;67572;50.930;18.276;2023-05-07T16:25:10;99974.88;;;8.09;68.49